Time;durP1;ratioP1;P1;durP2;ratioP2;P2;SDS_P1;SDS_P2;PMS_P1;PMS_P2;Temp;Humidity;BMP_temperature;BMP_pressure;BME280_temperature;BME280_humidity;BME280_pressure;Samples;Min_cycle;Max_cycle;Signal;HPM_P1;HPM_P2
2023/06/23 00:01:55;;;;;;;1.23;1.23;;;;;;;23.64;100.00;99521.66;5073422;28;20203;-68
2023/06/23 00:04:22;;;;;;;0.77;0.77;;;;;;;24.35;100.00;99633.59;5073602;28;20246;-68
2023/06/23 00:06:49;;;;;;;0.60;0.60;;;;;;;24.36;100.00;99637.88;5073863;28;20200;-68
2023/06/23 00:09:17;;;;;;;0.80;0.80;;;;;;;24.36;100.00;99645.75;5073710;28;20744;-68
2023/06/23 00:11:45;;;;;;;0.67;0.67;;;;;;;24.34;100.00;99637.16;5073481;28;20203;-68
2023/06/23 00:14:13;;;;;;;0.60;0.60;;;;;;;24.26;100.00;99626.50;5072951;28;20228;-68
2023/06/23 00:16:40;;;;;;;1.10;0.73;;;;;;;24.30;100.00;99622.63;5070062;28;20206;-68
2023/06/23 00:19:07;;;;;;;1.07;1.07;;;;;;;24.38;100.00;99639.41;5073090;28;20196;-68
2023/06/23 00:21:34;;;;;;;0.90;0.90;;;;;;;24.34;100.00;99638.00;5073710;28;20287;-68
2023/06/23 00:24:01;;;;;;;0.80;0.80;;;;;;;24.26;100.00;99624.72;5073072;28;20250;-68
2023/06/23 00:26:28;;;;;;;0.97;0.87;;;;;;;24.33;100.00;99630.28;5071835;28;20208;-68
2023/06/23 00:28:54;;;;;;;0.60;0.60;;;;;;;24.36;100.00;99641.31;5072918;28;20224;-68
2023/06/23 00:31:23;;;;;;;0.97;0.97;;;;;;;24.36;100.00;99653.59;5073103;28;20680;-68
2023/06/23 00:33:49;;;;;;;0.70;0.70;;;;;;;24.34;100.00;99647.63;5072720;28;20591;-68
2023/06/23 00:36:16;;;;;;;0.60;0.60;;;;;;;24.22;100.00;99632.94;5072139;28;20723;-68
2023/06/23 00:38:44;;;;;;;0.70;0.70;;;;;;;24.17;100.00;99635.13;5073203;28;20192;-68
2023/06/23 00:41:12;;;;;;;0.53;0.53;;;;;;;23.99;100.00;99601.59;5072994;28;20200;-68
2023/06/23 00:43:39;;;;;;;1.03;0.93;;;;;;;24.10;100.00;99633.94;5070242;28;20706;-68
2023/06/23 00:46:11;;;;;;;1.03;1.03;;;;;;;24.07;100.00;99634.19;5072874;28;20188;-68
2023/06/23 00:48:41;;;;;;;1.07;1.07;;;;;;;23.84;100.00;99622.97;5072046;28;20203;-67
2023/06/23 00:51:08;;;;;;;0.60;0.60;;;;;;;23.83;100.00;99629.97;5072634;28;20192;-68
2023/06/23 00:53:35;;;;;;;0.57;0.57;;;;;;;23.70;100.00;99612.75;5072419;28;20200;-68
2023/06/23 00:56:03;;;;;;;0.60;0.60;;;;;;;23.77;100.00;99633.09;5072516;28;20219;-68
2023/06/23 00:58:34;;;;;;;0.77;0.77;;;;;;;23.73;100.00;99642.16;5072645;28;20196;-68
2023/06/23 01:01:02;;;;;;;0.60;0.60;;;;;;;23.69;100.00;99629.41;5073036;28;20287;-68
2023/06/23 01:03:28;;;;;;;0.50;0.50;;;;;;;23.74;100.00;99633.34;5071963;28;20572;-68
2023/06/23 01:06:03;;;;;;;0.60;0.60;;;;;;;23.74;100.00;99635.13;5072678;28;20273;-68
2023/06/23 01:08:34;;;;;;;0.40;0.40;;;;;;;23.66;100.00;99614.78;5070096;28;20291;-68
2023/06/23 01:11:06;;;;;;;0.60;0.60;;;;;;;23.77;100.00;99633.09;5071727;28;20200;-68
2023/06/23 01:13:39;;;;;;;0.50;0.50;;;;;;;23.80;100.00;99637.25;5070782;28;20196;-68
2023/06/23 01:16:10;;;;;;;0.80;0.80;;;;;;;23.81;100.00;99626.63;5072346;28;20699;-68
2023/06/23 01:18:48;;;;;;;0.40;0.40;;;;;;;23.77;100.00;99627.88;5072449;28;20286;-68
2023/06/23 01:21:23;;;;;;;0.60;0.60;;;;;;;23.67;100.00;99611.22;5072292;28;20196;-68
2023/06/23 01:24:12;;;;;;;0.73;0.73;;;;;;;23.71;100.00;99630.97;5072146;28;20199;-68
2023/06/23 01:26:49;;;;;;;0.50;0.50;;;;;;;23.74;100.00;99622.03;5069986;28;20666;-68
2023/06/23 01:29:22;;;;;;;0.73;0.73;;;;;;;23.76;100.00;99615.72;5071495;28;20220;-68
2023/06/23 01:31:57;;;;;;;0.60;0.60;;;;;;;23.76;100.00;99615.72;5072293;28;20282;-68
2023/06/23 01:34:31;;;;;;;1.20;0.97;;;;;;;23.68;100.00;99605.03;5071058;28;20215;-68
2023/06/23 01:37:02;;;;;;;0.50;0.50;;;;;;;23.75;100.00;99605.38;5071806;28;20219;-68
2023/06/23 01:39:33;;;;;;;0.53;0.53;;;;;;;23.68;100.00;99618.13;5069786;28;20200;-68
2023/06/23 01:42:03;;;;;;;0.80;0.80;;;;;;;23.69;100.00;99614.53;5069354;28;20219;-67
2023/06/23 01:44:34;;;;;;;0.40;0.40;;;;;;;23.69;100.00;99608.47;5070041;28;20223;-68
2023/06/23 01:47:04;;;;;;;0.50;0.50;;;;;;;23.69;100.00;99617.16;5071349;28;20204;-68
2023/06/23 01:49:36;;;;;;;0.93;0.93;;;;;;;23.68;100.00;99612.06;5071763;28;20208;-68
2023/06/23 01:52:06;;;;;;;0.70;0.70;;;;;;;23.67;100.00;99616.47;5070837;28;20253;-68
2023/06/23 01:54:35;;;;;;;0.60;0.60;;;;;;;23.62;100.00;99607.31;5071935;28;20241;-68
2023/06/23 01:57:02;;;;;;;0.53;0.50;;;;;;;23.56;100.00;99613.03;5071207;28;20199;-68
2023/06/23 01:59:32;;;;;;;0.50;0.50;;;;;;;23.53;100.00;99617.56;5071396;28;20596;-68
2023/06/23 02:02:01;;;;;;;0.40;0.40;;;;;;;23.52;100.00;99628.16;5071674;28;20204;-68
2023/06/23 02:04:30;;;;;;;1.30;0.80;;;;;;;23.47;100.00;99623.28;5070377;28;20195;-68
2023/06/23 02:06:57;;;;;;;0.60;0.60;;;;;;;23.42;100.00;99622.00;5071154;28;20207;-68
2023/06/23 02:09:28;;;;;;;0.60;0.60;;;;;;;23.41;100.00;99630.78;5071063;28;20191;-67
2023/06/23 02:11:58;;;;;;;0.50;0.50;;;;;;;23.41;100.00;99633.41;5071701;28;20786;-68
2023/06/23 02:14:27;;;;;;;0.40;0.40;;;;;;;23.30;100.00;99622.91;5070768;28;20287;-68
2023/06/23 02:16:57;;;;;;;0.70;0.70;;;;;;;23.32;100.00;99631.50;5070179;28;20656;-68
2023/06/23 02:19:26;;;;;;;0.77;0.77;;;;;;;23.29;100.00;99642.22;5070937;28;20200;-68
2023/06/23 02:21:54;;;;;;;0.30;0.30;;;;;;;23.28;100.00;99635.31;5070301;28;20739;-68
2023/06/23 02:24:22;;;;;;;0.57;0.57;;;;;;;23.12;100.00;99614.75;5071173;28;20212;-68
2023/06/23 02:26:49;;;;;;;0.40;0.40;;;;;;;23.24;100.00;99633.88;5070907;28;20280;-68
2023/06/23 02:29:18;;;;;;;0.57;0.57;;;;;;;23.17;100.00;99622.22;5070175;28;20215;-68
2023/06/23 02:31:45;;;;;;;0.70;0.70;;;;;;;23.17;100.00;99637.91;5070826;28;20200;-68
2023/06/23 02:34:13;;;;;;;0.50;0.50;;;;;;;23.16;100.00;99638.88;5070109;28;20196;-68
2023/06/23 02:36:46;;;;;;;0.40;0.40;;;;;;;23.11;100.00;99641.84;5070774;28;20208;-68
2023/06/23 02:39:18;;;;;;;0.83;0.83;;;;;;;23.10;100.00;99644.59;5070480;28;20640;-68
2023/06/23 02:41:48;;;;;;;0.73;0.73;;;;;;;23.08;100.00;99639.47;5070449;28;20208;-68
2023/06/23 02:44:18;;;;;;;0.50;0.50;;;;;;;23.06;100.00;99645.78;5070225;28;20192;-68
2023/06/23 02:46:52;;;;;;;0.67;0.67;;;;;;;23.01;100.00;99646.97;5070773;28;20196;-68
2023/06/23 02:49:26;;;;;;;0.60;0.60;;;;;;;23.01;100.00;99648.75;5070511;28;20204;-68
2023/06/23 02:51:59;;;;;;;0.63;0.63;;;;;;;23.02;100.00;99650.41;5070385;28;20196;-68
2023/06/23 02:54:32;;;;;;;0.87;0.87;;;;;;;22.98;100.00;99644.59;5068352;28;20204;-68
2023/06/23 02:57:00;;;;;;;0.63;0.63;;;;;;;22.94;100.00;99637.91;5070592;28;20649;-68
2023/06/23 02:59:28;;;;;;;0.67;0.67;;;;;;;22.95;100.00;99643.97;5068784;28;20672;-68
2023/06/23 03:01:58;;;;;;;0.77;0.77;;;;;;;22.91;100.00;99643.38;5070231;28;20200;-68
2023/06/23 03:04:27;;;;;;;0.87;0.87;;;;;;;22.89;100.00;99640.06;5070304;28;20215;-68
2023/06/23 03:06:54;;;;;;;0.90;0.90;;;;;;;22.88;100.00;99653.25;5070363;28;20200;-68
2023/06/23 03:09:21;;;;;;;0.50;0.50;;;;;;;22.86;100.00;99656.00;5070214;28;20208;-68
2023/06/23 03:11:48;;;;;;;0.60;0.60;;;;;;;22.86;100.00;99650.75;5070296;28;20749;-68
2023/06/23 03:14:14;;;;;;;1.70;1.00;;;;;;;22.81;100.00;99645.03;5069764;28;20695;-68
2023/06/23 03:16:46;;;;;;;0.77;0.77;;;;;;;22.81;100.00;99650.25;5070259;28;20235;-67
2023/06/23 03:19:23;;;;;;;0.63;0.63;;;;;;;22.84;100.00;99641.38;5070245;28;20204;-68
2023/06/23 03:21:57;;;;;;;0.70;0.70;;;;;;;22.85;100.00;99646.47;5069966;28;20204;-68
2023/06/23 03:24:30;;;;;;;0.60;0.60;;;;;;;22.83;100.00;99640.53;5070141;28;20644;-68
2023/06/23 03:26:58;;;;;;;0.93;0.93;;;;;;;22.80;100.00;99643.41;5067450;28;20317;-68
2023/06/23 03:29:27;;;;;;;0.80;0.80;;;;;;;22.78;100.00;99642.66;5069928;28;20219;-68
2023/06/23 03:31:58;;;;;;;0.87;0.73;;;;;;;22.77;100.00;99634.94;5069677;28;20204;-68
2023/06/23 03:34:35;;;;;;;0.50;0.50;;;;;;;22.74;100.00;99643.88;5069464;28;20200;-68
2023/06/23 03:37:07;;;;;;;0.83;0.83;;;;;;;22.84;100.00;99652.66;5069409;28;20199;-68
2023/06/23 03:39:37;;;;;;;0.63;0.63;;;;;;;22.88;100.00;99656.69;5069688;28;20199;-68
2023/06/23 03:42:05;;;;;;;0.60;0.60;;;;;;;22.94;100.00;99653.59;5069388;28;20204;-68
2023/06/23 03:44:37;;;;;;;0.73;0.73;;;;;;;22.95;100.00;99644.81;5068671;28;20671;-68
2023/06/23 03:47:09;;;;;;;0.53;0.53;;;;;;;23.11;100.00;99654.09;5059784;28;20207;-68
2023/06/23 03:49:41;;;;;;;0.60;0.60;;;;;;;23.16;100.00;99654.56;5066509;28;20204;-68
2023/06/23 03:52:11;;;;;;;0.80;0.80;;;;;;;23.15;100.00;99666.81;5069175;28;20708;-68
2023/06/23 03:54:40;;;;;;;0.60;0.60;;;;;;;23.10;100.00;99662.91;5068807;28;20235;-66
2023/06/23 03:57:10;;;;;;;0.73;0.73;;;;;;;23.10;100.00;99668.13;5068734;28;20208;-66
2023/06/23 03:59:40;;;;;;;0.90;0.90;;;;;;;23.15;100.00;99665.97;5069179;28;20192;-66
2023/06/23 04:02:09;;;;;;;1.20;0.93;;;;;;;23.20;100.00;99667.28;5069257;28;20196;-66
2023/06/23 04:04:38;;;;;;;0.87;0.57;;;;;;;23.21;100.00;99668.13;5070363;28;20196;-66
2023/06/23 04:07:09;;;;;;;0.60;0.60;;;;;;;23.19;100.00;99665.63;5069340;28;20196;-66
2023/06/23 04:09:40;;;;;;;0.70;0.70;;;;;;;23.21;100.00;99655.03;5069678;28;20197;-66
2023/06/23 04:12:11;;;;;;;1.10;1.10;;;;;;;23.29;100.00;99663.13;5069197;28;20283;-66
2023/06/23 04:14:40;;;;;;;0.63;0.63;;;;;;;23.39;100.00;99658.84;5069998;28;20200;-66
2023/06/23 04:17:10;;;;;;;0.60;0.60;;;;;;;23.49;100.00;99659.78;5069414;28;20215;-66
2023/06/23 04:19:38;;;;;;;0.87;0.87;;;;;;;23.59;100.00;99655.50;5067091;28;20203;-66
2023/06/23 04:22:07;;;;;;;0.97;0.97;;;;;;;23.68;100.00;99659.19;5069607;28;20200;-66
2023/06/23 04:24:36;;;;;;;0.70;0.70;;;;;;;23.81;100.00;99655.44;5069445;28;20196;-67
2023/06/23 04:27:06;;;;;;;1.00;1.00;;;;;;;23.83;100.00;99629.97;5069091;28;20660;-66
2023/06/23 04:29:36;;;;;;;0.50;0.50;;;;;;;24.09;100.00;99642.72;5068312;28;20235;-66
2023/06/23 04:32:04;;;;;;;0.70;0.70;;;;;;;24.20;100.00;99645.34;5069534;28;20239;-66
2023/06/23 04:34:31;;;;;;;1.40;0.83;;;;;;;24.35;100.00;99651.94;5069659;28;20200;-66
2023/06/23 04:37:06;;;;;;;1.90;0.93;;;;;;;24.49;100.00;99651.63;5065581;28;20246;-66
2023/06/23 04:39:42;;;;;;;0.47;0.47;;;;;;;24.74;100.00;99651.22;5070740;28;20196;-66
2023/06/23 04:42:14;;;;;;;0.60;0.60;;;;;;;24.93;100.00;99656.59;5070300;28;20234;-66
2023/06/23 04:44:48;;;;;;;0.87;0.87;;;;;;;25.12;100.00;99668.13;5072446;28;20611;-66
2023/06/23 04:47:18;;;;;;;0.80;0.80;;;;;;;25.31;100.00;99678.69;5072034;28;20588;-66
2023/06/23 04:49:46;;;;;;;0.93;0.93;;;;;;;25.47;100.00;99676.41;5072052;28;20203;-66
2023/06/23 04:52:17;;;;;;;1.00;0.90;;;;;;;25.64;100.00;99673.19;5072142;28;20204;-66
2023/06/23 04:54:49;;;;;;;1.10;1.10;;;;;;;25.82;100.00;99681.22;5072639;28;20653;-66
2023/06/23 04:57:21;;;;;;;1.17;0.87;;;;;;;26.02;100.00;99670.59;5071530;28;20215;-67
2023/06/23 04:59:52;;;;;;;0.97;0.97;;;;;;;26.19;98.67;99674.38;5072122;28;20192;-66
2023/06/23 05:02:21;;;;;;;0.70;0.70;;;;;;;26.42;97.45;99678.38;5068754;28;20290;-65
2023/06/23 05:04:50;;;;;;;0.90;0.90;;;;;;;26.66;94.32;99682.38;5069575;28;20208;-65
2023/06/23 05:07:18;;;;;;;1.13;1.10;;;;;;;26.82;92.64;99688.69;5070663;28;20210;-66
2023/06/23 05:09:49;;;;;;;1.20;1.20;;;;;;;26.93;91.12;99685.91;5070392;28;20656;-66
2023/06/23 05:12:20;;;;;;;1.33;1.23;;;;;;;27.11;91.38;99689.44;5069987;28;20837;-65
2023/06/23 05:14:50;;;;;;;1.33;1.23;;;;;;;27.27;91.36;99683.56;5070968;28;20204;-65
2023/06/23 05:17:18;;;;;;;1.40;0.90;;;;;;;27.46;90.98;99680.91;5069017;28;20781;-65
2023/06/23 05:19:48;;;;;;;2.70;1.00;;;;;;;27.67;89.41;99685.88;5068723;28;20199;-65
2023/06/23 05:22:22;;;;;;;1.10;1.10;;;;;;;27.86;87.43;99680.50;5069801;28;20208;-65
2023/06/23 05:24:54;;;;;;;1.33;1.33;;;;;;;28.07;87.04;99691.63;5069440;28;20756;-64
2023/06/23 05:27:25;;;;;;;0.90;0.90;;;;;;;28.25;84.25;99680.22;5071352;28;20196;-65
2023/06/23 05:29:56;;;;;;;1.10;1.10;;;;;;;28.41;86.06;99685.63;5068075;28;20214;-65
2023/06/23 05:32:27;;;;;;;0.97;0.97;;;;;;;28.50;81.62;99685.53;5070068;28;20200;-65
2023/06/23 05:34:57;;;;;;;1.90;1.20;;;;;;;28.66;81.14;99684.88;5068863;28;20200;-63
2023/06/23 05:37:25;;;;;;;1.17;1.13;;;;;;;28.63;81.53;99682.50;5070178;28;20981;-64
2023/06/23 05:39:54;;;;;;;1.03;1.00;;;;;;;28.67;81.62;99665.41;5068089;28;21781;-63
2023/06/23 05:42:22;;;;;;;0.90;0.90;;;;;;;28.78;79.63;99683.66;5069239;28;20208;-63
2023/06/23 05:44:49;;;;;;;0.70;0.70;;;;;;;28.97;80.01;99674.69;5069975;28;20697;-65
2023/06/23 05:47:20;;;;;;;1.95;0.77;;;;;;;29.11;77.67;99689.94;5068251;28;20246;-63
2023/06/23 05:49:49;;;;;;;0.80;0.80;;;;;;;29.28;76.64;99680.31;5067764;28;20303;-63
2023/06/23 05:52:19;;;;;;;0.80;0.80;;;;;;;29.35;74.95;99687.44;5063775;28;20207;-63
2023/06/23 05:54:48;;;;;;;1.42;1.33;;;;;;;29.34;73.85;99688.41;5067778;28;20261;-63
2023/06/23 05:57:24;;;;;;;0.95;0.95;;;;;;;29.46;75.09;99695.09;5069601;28;20714;-64
2023/06/23 06:00:00;;;;;;;0.80;0.80;;;;;;;29.53;76.37;99692.66;5067932;28;20606;-63
2023/06/23 06:02:32;;;;;;;0.80;0.80;;;;;;;29.74;73.70;99692.19;5067793;28;20299;-63
2023/06/23 06:05:00;;;;;;;1.33;1.30;;;;;;;29.88;73.44;99700.38;5068477;28;20663;-63
2023/06/23 06:07:28;;;;;;;1.00;1.00;;;;;;;30.00;72.00;99701.72;5067843;28;20687;-63
2023/06/23 06:09:57;;;;;;;1.48;1.38;;;;;;;30.12;72.59;99697.75;5069525;28;20200;-70
2023/06/23 06:12:26;;;;;;;1.10;1.10;;;;;;;30.30;69.36;99694.13;5068852;28;20204;-66
2023/06/23 06:14:55;;;;;;;1.00;1.00;;;;;;;30.53;69.20;99685.41;5070571;28;20204;-66
2023/06/23 06:17:24;;;;;;;0.93;0.93;;;;;;;30.71;68.60;99698.44;5068973;28;20228;-64
2023/06/23 06:19:53;;;;;;;4.15;1.42;;;;;;;30.88;71.10;99689.50;5070189;28;20207;-65
2023/06/23 06:22:21;;;;;;;4.30;1.05;;;;;;;31.07;71.17;99688.31;5069664;28;20552;-64
2023/06/23 06:24:49;;;;;;;1.42;1.33;;;;;;;31.31;67.39;99700.66;5068809;28;20203;-63
2023/06/23 06:27:17;;;;;;;1.17;1.17;;;;;;;31.49;65.02;99698.59;5069755;28;20269;-65
2023/06/23 06:29:47;;;;;;;1.30;1.30;;;;;;;31.55;67.81;99687.31;5069355;28;20706;-64
2023/06/23 06:32:18;;;;;;;0.80;0.80;;;;;;;31.75;65.61;99693.84;5069439;28;20262;-64
2023/06/23 06:34:48;;;;;;;1.40;0.82;;;;;;;31.84;66.42;99691.97;5070313;28;20668;-64
2023/06/23 06:37:18;;;;;;;1.10;1.10;;;;;;;31.93;64.55;99688.25;5069382;28;20224;-64
2023/06/23 06:39:46;;;;;;;1.13;1.13;;;;;;;31.74;64.97;99692.19;5070141;28;20586;-65
2023/06/23 06:42:12;;;;;;;1.02;1.02;;;;;;;31.83;63.52;99685.81;5068785;28;20212;-64
2023/06/23 06:44:39;;;;;;;1.23;1.13;;;;;;;32.00;63.37;99686.56;5058392;28;20743;-65
2023/06/23 06:47:10;;;;;;;0.98;0.98;;;;;;;32.12;63.17;99691.31;5059411;28;20205;-65
2023/06/23 06:49:41;;;;;;;1.30;1.20;;;;;;;32.33;64.60;99676.56;5059497;28;20612;-65
2023/06/23 06:52:08;;;;;;;0.93;0.93;;;;;;;32.45;61.75;99680.44;5058217;28;20208;-65
2023/06/23 06:54:35;;;;;;;1.10;1.10;;;;;;;32.60;61.67;99681.34;5056367;28;20542;-65
2023/06/23 06:57:03;;;;;;;0.95;0.95;;;;;;;32.61;62.78;99677.66;5068724;28;20227;-65
2023/06/23 06:59:30;;;;;;;1.05;1.05;;;;;;;32.73;63.67;99679.69;5065948;28;20196;-65
2023/06/23 07:01:58;;;;;;;1.40;1.40;;;;;;;32.85;60.17;99681.91;5065449;28;20253;-65
2023/06/23 07:04:25;;;;;;;2.35;1.15;;;;;;;32.79;60.04;99672.00;5065121;28;20206;-66
2023/06/23 07:06:54;;;;;;;1.85;1.00;;;;;;;32.64;60.18;99670.16;5068235;28;20706;-65
2023/06/23 07:09:21;;;;;;;0.98;0.98;;;;;;;32.52;61.19;99671.56;5068286;28;20368;-65
2023/06/23 07:11:48;;;;;;;0.80;0.80;;;;;;;32.51;62.34;99674.41;5068946;28;20211;-65
2023/06/23 07:14:16;;;;;;;1.98;1.55;;;;;;;32.70;62.49;99673.91;5067463;28;20224;-65
2023/06/23 07:16:42;;;;;;;1.40;1.40;;;;;;;32.61;61.73;99680.31;5068790;28;20228;-64
2023/06/23 07:19:09;;;;;;;1.08;1.08;;;;;;;32.76;59.17;99667.91;5068112;28;20204;-65
2023/06/23 07:21:36;;;;;;;1.13;1.05;;;;;;;32.95;58.69;99677.97;5068353;28;20211;-65
2023/06/23 07:24:04;;;;;;;1.60;1.50;;;;;;;32.98;63.81;99674.97;5069238;28;20211;-65
2023/06/23 07:26:31;;;;;;;1.35;1.25;;;;;;;33.17;62.39;99671.78;5067904;28;20196;-65
2023/06/23 07:28:58;;;;;;;1.15;1.13;;;;;;;33.35;58.88;99675.84;5065179;28;20231;-65
2023/06/23 07:31:26;;;;;;;1.52;1.42;;;;;;;33.54;57.57;99659.34;5067739;28;20211;-65
2023/06/23 07:33:53;;;;;;;1.33;1.08;;;;;;;33.77;56.19;99668.00;5068874;28;20733;-64
2023/06/23 07:36:19;;;;;;;1.30;1.30;;;;;;;33.90;60.07;99662.00;5068233;28;20220;-65
2023/06/23 07:38:46;;;;;;;1.00;1.00;;;;;;;33.97;55.65;99677.03;5069500;28;20281;-65
2023/06/23 07:41:14;;;;;;;1.63;1.02;;;;;;;34.02;58.49;99671.16;5069141;28;20294;-64
2023/06/23 07:43:43;;;;;;;1.40;1.23;;;;;;;34.10;61.49;99671.81;5068871;28;20227;-64
2023/06/23 07:46:10;;;;;;;1.60;1.50;;;;;;;34.19;55.15;99667.22;5069343;28;20261;-65
2023/06/23 07:48:36;;;;;;;1.75;1.17;;;;;;;34.07;56.41;99658.91;5069422;28;20203;-65
2023/06/23 07:51:03;;;;;;;1.20;1.20;;;;;;;33.70;58.90;99659.16;5068890;28;20200;-64
2023/06/23 07:53:30;;;;;;;1.83;1.73;;;;;;;33.49;56.76;99664.38;5067714;28;20204;-64
2023/06/23 07:55:57;;;;;;;1.58;1.45;;;;;;;33.73;57.37;99662.25;5069147;28;20199;-65
2023/06/23 07:58:25;;;;;;;1.20;1.20;;;;;;;33.90;57.01;99660.16;5066604;28;20212;-64
2023/06/23 08:00:53;;;;;;;1.48;1.38;;;;;;;34.12;56.16;99661.03;5067293;28;20200;-64
2023/06/23 08:03:20;;;;;;;1.20;1.20;;;;;;;34.24;56.15;99655.00;5066597;28;20303;-65
2023/06/23 08:05:46;;;;;;;2.53;1.63;;;;;;;34.05;56.10;99658.28;5063482;28;20211;-64
2023/06/23 08:08:13;;;;;;;1.33;1.27;;;;;;;33.95;56.10;99649.78;5067438;28;20200;-64
2023/06/23 08:10:40;;;;;;;1.48;1.38;;;;;;;33.70;57.31;99646.66;5067845;28;20212;-64
2023/06/23 08:13:07;;;;;;;1.25;1.23;;;;;;;33.95;56.99;99643.66;5067982;28;20592;-64
2023/06/23 08:15:35;;;;;;;0.85;0.85;;;;;;;33.95;56.27;99644.47;5072761;28;20293;-64
2023/06/23 08:18:01;;;;;;;1.50;1.50;;;;;;;33.90;57.20;99644.22;5072933;28;20707;-65
2023/06/23 08:20:28;;;;;;;1.30;1.30;;;;;;;33.79;56.34;99644.72;5071700;28;20199;-64
2023/06/23 08:22:55;;;;;;;0.82;0.82;;;;;;;33.54;55.26;99646.06;5070923;28;20205;-65
2023/06/23 08:25:22;;;;;;;1.10;1.10;;;;;;;33.53;55.34;99644.41;5072143;28;20215;-64
2023/06/23 08:27:49;;;;;;;0.95;0.95;;;;;;;33.42;54.93;99643.03;5072258;28;20289;-64
2023/06/23 08:30:16;;;;;;;1.42;1.23;;;;;;;33.30;58.37;99641.06;5072035;28;20204;-65
2023/06/23 08:32:45;;;;;;;1.15;1.15;;;;;;;33.35;58.42;99633.34;5071832;28;20334;-65
2023/06/23 08:35:12;;;;;;;2.13;2.03;;;;;;;33.52;56.88;99622.31;5068651;28;20338;-64
2023/06/23 08:37:38;;;;;;;1.45;1.35;;;;;;;33.21;53.59;99625.22;5069832;28;20240;-68
2023/06/23 08:40:06;;;;;;;1.20;1.20;;;;;;;33.04;55.82;99631.72;5069645;28;20196;-63
2023/06/23 08:42:34;;;;;;;1.75;1.60;;;;;;;33.21;55.28;99624.41;5071316;28;20200;-64
2023/06/23 08:45:03;;;;;;;1.15;1.15;;;;;;;33.49;54.62;99617.38;5069133;28;20200;-63
2023/06/23 08:47:31;;;;;;;3.17;1.05;;;;;;;33.62;53.60;99614.06;5070398;28;20279;-63
2023/06/23 08:50:01;;;;;;;1.20;1.10;;;;;;;33.73;55.98;99617.03;5071619;28;20254;-64
2023/06/23 08:52:28;;;;;;;1.10;1.05;;;;;;;33.85;52.38;99612.03;5069079;28;20751;-64
2023/06/23 08:54:55;;;;;;;2.60;1.80;;;;;;;33.68;54.26;99610.63;5070052;28;20273;-64
2023/06/23 08:57:22;;;;;;;1.58;1.48;;;;;;;33.70;54.59;99613.94;5068974;28;20220;-64
2023/06/23 08:59:49;;;;;;;1.95;1.80;;;;;;;33.99;55.63;99616.44;5068635;28;20204;-63
2023/06/23 09:02:18;;;;;;;1.35;1.33;;;;;;;34.13;53.42;99610.28;5068567;28;20204;-63
2023/06/23 09:04:44;;;;;;;1.13;1.13;;;;;;;34.41;53.80;99618.28;5070712;28;20200;-66
2023/06/23 09:07:13;;;;;;;0.90;0.90;;;;;;;34.45;52.69;99613.38;5070661;28;20207;-66
2023/06/23 09:09:40;;;;;;;1.73;1.63;;;;;;;34.44;50.81;99611.75;5071375;28;20676;-66
2023/06/23 09:12:08;;;;;;;0.93;0.93;;;;;;;34.47;53.89;99611.34;5071484;28;20204;-66
2023/06/23 09:14:37;;;;;;;1.42;1.30;;;;;;;34.31;51.55;99612.47;5070071;28;20208;-65
2023/06/23 09:17:04;;;;;;;1.25;1.17;;;;;;;33.96;50.57;99603.53;5067941;28;20223;-65
2023/06/23 09:19:33;;;;;;;1.25;1.20;;;;;;;34.14;51.35;99600.47;5068178;28;20204;-66
2023/06/23 09:22:00;;;;;;;0.80;0.80;;;;;;;34.13;52.17;99599.63;5069719;28;20295;-66
2023/06/23 09:24:40;;;;;;;1.08;1.08;;;;;;;34.04;51.26;99582.13;5067657;28;20204;-66
2023/06/23 09:27:07;;;;;;;1.23;1.23;;;;;;;34.41;52.33;99602.31;5070226;28;20545;-66
2023/06/23 09:29:37;;;;;;;1.10;1.00;;;;;;;34.67;50.76;99599.03;5068910;28;20289;-66
2023/06/23 09:32:04;;;;;;;1.67;1.55;;;;;;;34.86;48.60;99603.63;5070257;28;20200;-65
2023/06/23 09:34:34;;;;;;;1.27;1.10;;;;;;;35.03;48.22;99591.59;5068661;28;20204;-65
2023/06/23 09:37:07;;;;;;;1.50;1.38;;;;;;;35.20;52.18;99592.94;5069490;28;20813;-66
2023/06/23 09:39:35;;;;;;;0.85;0.85;;;;;;;35.09;50.79;99585.47;5071627;28;20208;-66
2023/06/23 09:42:06;;;;;;;0.90;0.90;;;;;;;35.14;49.91;99574.25;5069790;28;20200;-65
2023/06/23 09:44:34;;;;;;;1.30;1.27;;;;;;;34.85;48.86;99593.16;5070613;28;20204;-66
2023/06/23 09:47:01;;;;;;;1.75;1.65;;;;;;;34.47;49.77;99579.41;5069540;28;20227;-66
2023/06/23 09:49:28;;;;;;;1.73;1.63;;;;;;;34.62;52.41;99572.16;5070505;28;20257;-65
2023/06/23 09:51:55;;;;;;;1.52;1.50;;;;;;;34.80;51.85;99575.09;5067644;28;20568;-66
2023/06/23 09:54:32;;;;;;;1.88;1.77;;;;;;;34.69;52.09;99567.69;5071287;28;20215;-66
2023/06/23 09:57:08;;;;;;;2.00;1.90;;;;;;;34.69;52.92;99570.34;5067990;28;20253;-66
2023/06/23 09:59:35;;;;;;;1.17;1.17;;;;;;;34.58;52.10;99573.50;5068271;28;20785;-66
2023/06/23 10:02:01;;;;;;;1.52;1.42;;;;;;;34.57;50.45;99574.56;5070334;28;20207;-67
2023/06/23 10:04:29;;;;;;;1.13;1.13;;;;;;;34.33;50.54;99561.69;5070227;28;20231;-66
2023/06/23 10:06:56;;;;;;;1.23;1.23;;;;;;;34.35;51.75;99565.78;5068888;28;20227;-66
2023/06/23 10:09:24;;;;;;;1.50;1.42;;;;;;;34.51;52.19;99560.16;5069552;28;20231;-66
2023/06/23 10:11:52;;;;;;;2.03;1.92;;;;;;;34.43;49.71;99546.19;5070094;28;20684;-66
2023/06/23 10:14:20;;;;;;;1.00;1.00;;;;;;;34.38;49.38;99553.97;5069961;28;20204;-66
2023/06/23 10:16:49;;;;;;;1.20;1.20;;;;;;;34.33;49.35;99551.88;5069755;28;20196;-66
2023/06/23 10:19:16;;;;;;;1.23;1.15;;;;;;;34.26;49.96;99556.31;5069949;28;20299;-66
2023/06/23 10:21:44;;;;;;;1.30;1.20;;;;;;;34.18;48.08;99554.66;5069570;28;20638;-66
2023/06/23 10:24:14;;;;;;;1.33;1.30;;;;;;;34.29;49.84;99551.44;5070663;28;20253;-66
2023/06/23 10:26:41;;;;;;;1.50;1.40;;;;;;;34.16;48.41;99530.03;5070462;28;20207;-65
2023/06/23 10:29:13;;;;;;;0.93;0.93;;;;;;;34.11;49.60;99548.44;5069643;28;20228;-65
2023/06/23 10:31:42;;;;;;;1.27;1.27;;;;;;;34.18;47.65;99549.31;5070289;28;20667;-66
2023/06/23 10:34:13;;;;;;;1.60;1.50;;;;;;;34.32;47.98;99550.22;5068793;28;20203;-66
2023/06/23 10:36:41;;;;;;;0.88;0.88;;;;;;;34.31;49.97;99543.25;5069580;28;20675;-65
2023/06/23 10:39:10;;;;;;;2.08;1.05;;;;;;;34.37;49.44;99534.50;5069452;28;20219;-65
2023/06/23 10:41:39;;;;;;;1.38;1.30;;;;;;;34.39;49.33;99526.28;5070239;28;20565;-65
2023/06/23 10:44:06;;;;;;;1.00;1.00;;;;;;;34.50;47.69;99531.91;5067949;28;20660;-67
2023/06/23 10:46:35;;;;;;;1.20;1.20;;;;;;;34.52;47.43;99529.03;5069047;28;20206;-67
2023/06/23 10:49:05;;;;;;;1.17;1.17;;;;;;;34.34;46.62;99524.25;5068525;28;20196;-67
2023/06/23 10:51:32;;;;;;;0.70;0.70;;;;;;;34.04;47.88;99520.94;5068989;28;20204;-67
2023/06/23 10:54:01;;;;;;;0.98;0.98;;;;;;;34.07;48.18;99520.53;5069006;28;20680;-67
2023/06/23 10:56:32;;;;;;;1.70;1.08;;;;;;;34.31;50.36;99515.81;5067308;28;20207;-67
2023/06/23 10:59:17;;;;;;;1.05;1.05;;;;;;;34.31;45.87;99521.16;5068355;28;20646;-67
2023/06/23 11:02:18;;;;;;;0.70;0.70;;;;;;;34.36;45.80;99508.06;5069100;28;20207;-67
2023/06/23 11:04:54;;;;;;;1.00;0.98;;;;;;;34.21;45.41;99502.88;5068965;28;20215;-67
2023/06/23 11:07:20;;;;;;;1.80;1.23;;;;;;;34.11;45.74;99505.88;5068451;28;20650;-68
2023/06/23 11:09:54;;;;;;;0.75;0.75;;;;;;;34.25;45.92;99506.78;5068846;28;20208;-67
2023/06/23 11:12:32;;;;;;;3.88;0.77;;;;;;;34.10;46.03;99504.19;5069874;28;20680;-68
2023/06/23 11:15:12;;;;;;;0.65;0.65;;;;;;;33.87;48.67;99503.59;5067147;28;20203;-67
2023/06/23 11:17:46;;;;;;;0.80;0.80;;;;;;;34.05;46.51;99498.63;5066938;28;20702;-67
2023/06/23 11:20:29;;;;;;;1.50;1.40;;;;;;;34.12;46.64;99501.38;5067871;28;20461;-63
2023/06/23 11:22:59;;;;;;;1.30;1.30;;;;;;;34.39;46.08;99491.69;5068414;28;20528;-64
2023/06/23 11:25:29;;;;;;;1.83;0.85;;;;;;;34.68;45.66;99488.78;5069410;28;20217;-63
2023/06/23 11:28:24;;;;;;;1.23;1.20;;;;;;;34.83;43.62;99484.16;5068983;28;20309;-64
2023/06/23 11:30:57;;;;;;;0.90;0.85;;;;;;;34.39;43.77;99478.38;5069962;28;20203;-64
2023/06/23 11:33:27;;;;;;;0.75;0.75;;;;;;;34.53;44.26;99485.41;5067197;28;20211;-63
2023/06/23 11:35:56;;;;;;;0.80;0.80;;;;;;;34.58;44.17;99488.31;5069726;28;20603;-64
2023/06/23 11:38:22;;;;;;;0.80;0.80;;;;;;;34.59;45.15;99487.28;5069789;28;20231;-64
2023/06/23 11:40:51;;;;;;;1.10;1.10;;;;;;;34.70;45.31;99478.78;5070279;28;20200;-64